createdAt,value
2018-09-15T00:02:50.602Z,17.30
2018-09-15T00:07:45.515Z,17.40
2018-09-15T00:12:40.402Z,17.40
2018-09-15T00:17:35.632Z,17.30
2018-09-15T00:22:30.499Z,17.30
2018-09-15T00:27:25.393Z,17.40
2018-09-15T00:32:20.299Z,17.40
2018-09-15T00:37:15.240Z,17.40
2018-09-15T00:42:10.146Z,17.40
2018-09-15T00:47:05.059Z,17.30
2018-09-15T00:51:59.981Z,17.20
2018-09-15T00:56:54.964Z,17.10
2018-09-15T01:01:49.862Z,17.00
2018-09-15T01:06:44.790Z,17.00
2018-09-15T01:11:39.738Z,17.10
2018-09-15T01:16:34.589Z,17.10
2018-09-15T01:21:29.614Z,17.10
2018-09-15T01:26:24.565Z,17.20
2018-09-15T01:31:20.929Z,17.10
2018-09-15T01:36:15.848Z,17.10
2018-09-15T01:41:10.869Z,16.90
2018-09-15T01:46:05.813Z,16.90
2018-09-15T01:51:00.689Z,16.80
2018-09-15T01:55:55.556Z,16.70
2018-09-15T02:00:50.614Z,16.70
2018-09-15T02:05:45.546Z,16.60
2018-09-15T02:10:40.502Z,16.50
2018-09-15T02:15:35.406Z,16.50
2018-09-15T02:20:30.260Z,16.50
2018-09-15T02:25:25.182Z,16.40
2018-09-15T02:30:20.135Z,16.30
2018-09-15T02:35:15.034Z,16.20
2018-09-15T02:40:09.979Z,16.20
2018-09-15T02:45:04.957Z,16.10
2018-09-15T02:49:59.919Z,16.10
2018-09-15T02:54:54.849Z,16.10
2018-09-15T02:59:49.769Z,16.00
2018-09-15T03:04:44.707Z,15.90
2018-09-15T03:09:39.597Z,15.90
2018-09-15T03:14:34.498Z,15.90
2018-09-15T03:19:29.449Z,15.90
2018-09-15T03:24:24.277Z,15.90
2018-09-15T03:29:19.234Z,16.00
2018-09-15T03:34:14.135Z,16.00
2018-09-15T03:39:11.110Z,16.00
2018-09-15T03:44:06.002Z,15.90
2018-09-15T03:49:00.968Z,15.90
2018-09-15T03:53:55.820Z,15.80
2018-09-15T03:58:50.757Z,15.80
2018-09-15T04:03:45.597Z,15.70
2018-09-15T04:08:40.465Z,15.70
2018-09-15T04:13:35.350Z,15.70
2018-09-15T04:18:30.263Z,15.80
2018-09-15T04:23:25.107Z,15.90
2018-09-15T04:28:19.964Z,16.00
2018-09-15T04:33:14.863Z,16.00
2018-09-15T04:38:09.733Z,16.00
2018-09-15T04:43:04.657Z,16.00
2018-09-15T04:47:59.635Z,16.10
2018-09-15T04:52:54.537Z,16.00
2018-09-15T04:57:49.422Z,16.00
2018-09-15T05:02:44.330Z,16.00
2018-09-15T05:07:39.285Z,16.00
2018-09-15T05:12:35.034Z,16.10
2018-09-15T05:17:30.041Z,16.10
2018-09-15T05:22:24.953Z,16.10
2018-09-15T05:27:19.864Z,16.10
2018-09-15T05:32:15.723Z,16.10
2018-09-15T05:37:10.732Z,16.10
2018-09-15T05:42:05.629Z,16.00
2018-09-15T05:47:00.529Z,16.00
2018-09-15T05:51:55.432Z,16.00
2018-09-15T05:56:51.094Z,16.10
2018-09-15T06:01:46.061Z,16.30
2018-09-15T06:06:41.104Z,16.40
2018-09-15T06:11:36.049Z,16.50
2018-09-15T06:16:31.043Z,16.60
2018-09-15T06:21:25.972Z,16.70
2018-09-15T06:26:20.979Z,16.90
2018-09-15T06:31:15.838Z,17.00
2018-09-15T06:36:10.708Z,16.90
2018-09-15T06:41:05.690Z,16.80
2018-09-15T06:46:00.581Z,16.80
2018-09-15T06:50:55.507Z,16.80
2018-09-15T06:55:50.525Z,16.90
2018-09-15T07:00:45.465Z,17.10
2018-09-15T07:05:40.423Z,17.10
2018-09-15T07:10:35.308Z,17.20
2018-09-15T07:15:30.422Z,17.40
2018-09-15T07:20:25.471Z,17.80
2018-09-15T07:25:20.321Z,18.20
2018-09-15T07:30:15.262Z,18.40
2018-09-15T07:35:10.165Z,18.40
2018-09-15T07:40:05.179Z,18.30
2018-09-15T07:45:00.293Z,18.30
2018-09-15T07:49:55.265Z,18.50
2018-09-15T07:54:50.165Z,18.90
2018-09-15T07:59:45.034Z,19.20
2018-09-15T08:04:39.954Z,19.10
2018-09-15T08:09:34.928Z,19.20
2018-09-15T08:14:29.931Z,19.20
2018-09-15T08:19:24.914Z,19.50
2018-09-15T08:24:19.830Z,19.70
2018-09-15T08:29:14.733Z,19.70
2018-09-15T08:34:09.671Z,19.90
2018-09-15T08:39:05.405Z,19.70
2018-09-15T08:44:00.359Z,19.40
2018-09-15T08:48:55.306Z,19.30
2018-09-15T08:53:50.222Z,19.30
2018-09-15T08:58:45.145Z,19.20
2018-09-15T09:03:40.185Z,19.20
2018-09-15T09:08:35.054Z,19.20
2018-09-15T09:13:29.961Z,19.20
2018-09-15T09:18:24.914Z,19.20
2018-09-15T09:23:19.829Z,19.20
2018-09-15T09:28:14.733Z,19.30
2018-09-15T09:33:09.812Z,19.10
2018-09-15T09:38:04.673Z,18.90
2018-09-15T09:42:59.643Z,18.80
2018-09-15T09:47:54.520Z,19.10
2018-09-15T09:52:49.402Z,19.40
2018-09-15T09:57:44.280Z,19.90
2018-09-15T10:02:39.147Z,20.30
2018-09-15T10:07:34.005Z,20.70
2018-09-15T10:12:28.833Z,20.90
2018-09-15T10:17:23.632Z,20.90
2018-09-15T10:22:18.434Z,21.00
2018-09-15T10:27:13.217Z,21.20
2018-09-15T10:32:08.079Z,21.00
2018-09-15T10:37:02.906Z,21.00
2018-09-15T10:41:57.738Z,21.00
2018-09-15T10:46:52.790Z,21.20
2018-09-15T10:51:47.722Z,21.20
2018-09-15T10:56:42.664Z,21.20
2018-09-15T11:01:37.577Z,21.30
2018-09-15T11:06:32.509Z,21.40
2018-09-15T11:11:27.425Z,21.50
2018-09-15T11:16:22.330Z,21.40
2018-09-15T11:21:17.242Z,21.60
2018-09-15T11:26:12.164Z,21.70
2018-09-15T11:31:07.121Z,21.80
2018-09-15T11:36:01.949Z,21.90
2018-09-15T11:40:56.819Z,21.80
2018-09-15T11:45:51.717Z,21.70
2018-09-15T11:50:46.650Z,21.60
2018-09-15T11:55:41.684Z,21.50
2018-09-15T12:00:39.221Z,21.50
2018-09-15T12:05:34.204Z,21.70
2018-09-15T12:10:29.073Z,21.80
2018-09-15T12:15:24.045Z,21.80
2018-09-15T12:20:19.330Z,21.50
2018-09-15T12:25:14.126Z,21.40
2018-09-15T12:30:09.198Z,21.50
2018-09-15T12:35:04.176Z,21.60
2018-09-15T12:39:59.121Z,21.70
2018-09-15T12:44:54.048Z,21.70
2018-09-15T12:49:48.938Z,21.60
2018-09-15T12:54:43.806Z,21.60
2018-09-15T12:59:38.831Z,21.60
2018-09-15T13:04:33.904Z,21.60
2018-09-15T13:09:28.780Z,21.50
2018-09-15T13:14:23.690Z,21.40
2018-09-15T13:19:18.642Z,21.30
2018-09-15T13:24:13.577Z,21.30
2018-09-15T13:29:08.492Z,21.30
2018-09-15T13:34:03.437Z,21.30
2018-09-15T13:38:58.370Z,21.30
2018-09-15T13:43:53.254Z,21.20
2018-09-15T13:48:48.283Z,21.20
2018-09-15T13:53:43.257Z,21.20
2018-09-15T13:58:38.141Z,21.20
2018-09-15T14:03:33.060Z,21.20
2018-09-15T14:08:27.943Z,21.20
2018-09-15T14:13:22.861Z,21.20
2018-09-15T14:18:17.786Z,21.20
2018-09-15T14:23:12.705Z,21.30
2018-09-15T14:28:07.707Z,21.30
2018-09-15T14:33:02.649Z,21.30
2018-09-15T14:37:57.759Z,21.40
2018-09-15T14:42:52.651Z,21.40
2018-09-15T14:47:47.563Z,21.40
2018-09-15T14:52:42.400Z,21.50
2018-09-15T14:57:37.225Z,21.50
2018-09-15T15:02:32.101Z,21.40
2018-09-15T15:07:27.017Z,21.40
2018-09-15T15:12:21.886Z,21.30
2018-09-15T15:17:16.805Z,21.30
2018-09-15T15:22:11.709Z,21.20
2018-09-15T15:27:06.752Z,21.10
2018-09-15T15:32:01.617Z,21.10
2018-09-15T15:36:56.407Z,21.00
2018-09-15T15:41:51.244Z,21.00
2018-09-15T15:46:46.047Z,21.00
2018-09-15T15:51:41.222Z,21.00
2018-09-15T15:56:36.098Z,21.00
2018-09-15T16:01:30.987Z,20.90
2018-09-15T16:06:25.867Z,20.80
2018-09-15T16:11:21.228Z,20.90
2018-09-15T16:16:16.142Z,20.80
2018-09-15T16:21:11.027Z,20.80
2018-09-15T16:26:05.978Z,20.70
2018-09-15T16:31:00.830Z,20.50
2018-09-15T16:35:55.733Z,20.50
2018-09-15T16:40:50.718Z,20.40
2018-09-15T16:45:45.608Z,20.30
2018-09-15T16:50:40.555Z,20.10
2018-09-15T16:55:35.506Z,19.90
2018-09-15T17:00:30.686Z,19.70
2018-09-15T17:05:25.693Z,19.50
2018-09-15T17:10:20.626Z,19.30
2018-09-15T17:15:15.607Z,19.10
2018-09-15T17:20:10.562Z,18.90
2018-09-15T17:25:05.531Z,18.70
2018-09-15T17:30:00.408Z,18.50
2018-09-15T17:34:55.701Z,18.50
2018-09-15T17:39:50.650Z,18.50
2018-09-15T17:44:46.217Z,18.50
2018-09-15T17:49:41.145Z,18.50
2018-09-15T17:54:36.213Z,18.30
2018-09-15T17:59:31.052Z,18.30
2018-09-15T18:04:25.971Z,18.30
2018-09-15T18:09:20.970Z,18.20
2018-09-15T18:14:15.861Z,18.10
2018-09-15T18:19:10.742Z,18.00
2018-09-15T18:24:05.622Z,17.80
2018-09-15T18:29:00.491Z,17.70
2018-09-15T18:33:55.453Z,17.60
2018-09-15T18:38:50.320Z,17.60
2018-09-15T18:43:45.231Z,17.50
2018-09-15T18:48:40.129Z,17.50
2018-09-15T18:53:35.133Z,17.40
2018-09-15T18:58:29.994Z,17.20
2018-09-15T19:03:24.885Z,17.30
2018-09-15T19:08:19.833Z,17.10
2018-09-15T19:13:14.696Z,17.10
2018-09-15T19:18:09.593Z,17.10
2018-09-15T19:23:04.556Z,17.20
2018-09-15T19:27:59.478Z,17.20
2018-09-15T19:32:54.382Z,17.20
2018-09-15T19:37:49.337Z,17.20
2018-09-15T19:42:44.331Z,17.20
2018-09-15T19:47:39.272Z,17.10
2018-09-15T19:52:34.268Z,17.00
2018-09-15T19:57:29.127Z,16.90
2018-09-15T20:02:24.029Z,16.80
2018-09-15T20:07:21.792Z,16.80
2018-09-15T20:12:16.753Z,16.70
2018-09-15T20:17:09.738Z,16.60
2018-09-15T20:22:04.799Z,16.50
2018-09-15T20:26:59.802Z,16.50
2018-09-15T20:31:54.754Z,16.50
2018-09-15T20:36:49.645Z,16.20
2018-09-15T20:41:44.567Z,16.10
2018-09-15T20:46:39.502Z,16.10
2018-09-15T20:51:34.385Z,16.10
2018-09-15T20:56:29.289Z,16.00
2018-09-15T21:01:24.196Z,15.90
2018-09-15T21:06:19.101Z,15.80
2018-09-15T21:11:14.009Z,15.90
2018-09-15T21:16:08.893Z,16.00
2018-09-15T21:21:04.722Z,16.00
2018-09-15T21:25:59.582Z,16.00
2018-09-15T21:30:54.502Z,15.90
2018-09-15T21:35:49.408Z,15.90
2018-09-15T21:40:44.310Z,15.90
2018-09-15T21:45:39.222Z,15.80
2018-09-15T21:50:34.149Z,15.80
2018-09-15T21:55:29.145Z,15.70
2018-09-15T22:00:24.091Z,15.60
2018-09-15T22:05:19.037Z,15.50
2018-09-15T22:10:13.921Z,15.40
2018-09-15T22:15:25.665Z,15.20
2018-09-15T22:20:20.777Z,15.10
2018-09-15T22:25:15.691Z,15.20
2018-09-15T22:30:10.588Z,15.00
2018-09-15T22:35:05.564Z,14.90
2018-09-15T22:40:00.528Z,14.80
2018-09-15T22:44:55.396Z,14.80
2018-09-15T22:49:50.221Z,14.70
2018-09-15T22:54:45.383Z,14.70
2018-09-15T22:59:40.305Z,14.60
2018-09-15T23:04:35.202Z,14.50
2018-09-15T23:09:30.080Z,14.30
2018-09-15T23:14:25.026Z,14.40
2018-09-15T23:19:19.964Z,14.40
2018-09-15T23:24:14.825Z,14.40
2018-09-15T23:29:09.747Z,14.30
2018-09-15T23:34:04.673Z,14.30
2018-09-15T23:38:59.576Z,14.20
2018-09-15T23:43:54.545Z,14.10
2018-09-15T23:48:49.432Z,14.10
2018-09-15T23:53:44.365Z,14.00
2018-09-15T23:58:39.277Z,14.00
